createdAt,value
2022-11-06T00:00:17.299Z,101217.16
2022-11-06T00:01:19.890Z,101218.09
2022-11-06T00:02:21.526Z,101218.00
2022-11-06T00:03:24.500Z,101216.28
2022-11-06T00:04:28.970Z,101216.41
2022-11-06T00:05:49.532Z,101212.91
2022-11-06T00:06:53.363Z,101210.25
2022-11-06T00:07:54.889Z,101211.22
2022-11-06T00:08:59.694Z,101208.69
2022-11-06T00:10:01.230Z,101220.22
2022-11-06T00:11:10.349Z,101217.56
2022-11-06T00:12:11.863Z,101218.44
2022-11-06T00:13:14.354Z,101217.56
2022-11-06T00:14:16.182Z,101216.72
2022-11-06T00:15:19.162Z,101215.00
2022-11-06T00:16:21.238Z,101218.63
2022-11-06T00:17:23.703Z,101211.63
2022-11-06T00:18:27.276Z,101210.69
2022-11-06T00:19:29.933Z,101216.94
2022-11-06T00:20:31.587Z,101210.78
2022-11-06T00:21:34.884Z,101216.09
2022-11-06T00:22:38.397Z,101211.63
2022-11-06T00:23:41.300Z,101211.63
2022-11-06T00:24:42.826Z,101215.22
2022-11-06T00:25:45.396Z,101212.56
2022-11-06T00:26:53.038Z,101215.22
2022-11-06T00:27:56.778Z,101211.00
2022-11-06T00:28:58.799Z,101217.16
2022-11-06T00:30:01.339Z,101221.59
2022-11-06T00:31:05.269Z,101212.91
2022-11-06T00:32:06.853Z,101224.31
2022-11-06T00:33:10.583Z,101218.22
2022-11-06T00:34:12.168Z,101210.34
2022-11-06T00:35:14.852Z,101213.00
2022-11-06T00:36:20.453Z,101212.06
2022-11-06T00:37:22.282Z,101206.75
2022-11-06T00:38:26.451Z,101205.06
2022-11-06T00:39:27.990Z,101208.66
2022-11-06T00:40:30.487Z,101199.03
2022-11-06T00:41:32.078Z,101203.34
2022-11-06T00:42:34.535Z,101206.97
2022-11-06T00:43:36.870Z,101190.19
2022-11-06T00:44:39.347Z,101199.94
2022-11-06T00:45:40.870Z,101199.09
2022-11-06T00:46:43.420Z,101195.59
2022-11-06T00:47:44.943Z,101189.44
2022-11-06T00:48:47.685Z,101196.56
2022-11-06T00:49:49.182Z,101202.81
2022-11-06T00:50:51.715Z,101194.84
2022-11-06T00:51:53.232Z,101193.16
2022-11-06T00:52:56.073Z,101194.84
2022-11-06T00:54:00.860Z,101195.81
2022-11-06T00:55:03.375Z,101192.31
2022-11-06T00:56:06.079Z,101196.78
2022-11-06T00:57:08.677Z,101191.47
2022-11-06T00:58:10.620Z,101196.78
2022-11-06T00:59:14.881Z,101197.72
2022-11-06T01:00:18.011Z,101194.22
2022-11-06T01:01:22.994Z,101190.72
2022-11-06T01:02:24.776Z,101187.22
2022-11-06T01:03:27.318Z,101186.38
2022-11-06T01:04:28.900Z,101191.66
2022-11-06T01:05:31.406Z,101191.66
2022-11-06T01:06:35.538Z,101196.94
2022-11-06T01:07:38.088Z,101196.13
2022-11-06T01:08:39.918Z,101201.53
2022-11-06T01:09:43.816Z,101198.03
2022-11-06T01:10:45.359Z,101201.63
2022-11-06T01:13:13.500Z,101192.84
2022-11-06T01:14:17.336Z,101197.28
2022-11-06T01:15:19.831Z,101192.94
2022-11-06T01:16:22.629Z,101194.72
2022-11-06T01:17:25.543Z,101193.06
2022-11-06T01:18:27.138Z,101198.44
2022-11-06T01:19:29.691Z,101195.69
2022-11-06T01:20:31.295Z,101193.16
2022-11-06T01:21:37.426Z,101195.91
2022-11-06T01:22:39.872Z,101197.59
2022-11-06T01:23:42.370Z,101202.88
2022-11-06T01:24:46.256Z,101197.72
2022-11-06T01:25:56.678Z,101194.22
2022-11-06T01:27:25.027Z,101201.22
2022-11-06T01:28:21.068Z,101202.88
2022-11-06T01:29:23.614Z,101199.28
2022-11-06T01:30:25.206Z,101194.72
2022-11-06T01:31:31.250Z,101198.13
2022-11-06T01:32:34.309Z,101192.63
2022-11-06T01:33:37.201Z,101197.72
2022-11-06T01:34:39.745Z,101192.22
2022-11-06T01:35:44.674Z,101197.28
2022-11-06T01:36:47.550Z,101192.00
2022-11-06T01:37:49.068Z,101189.34
2022-11-06T01:38:53.879Z,101187.66
2022-11-06T01:39:58.647Z,101182.34
2022-11-06T01:41:00.512Z,101181.50
2022-11-06T01:42:02.986Z,101183.41
2022-11-06T01:43:04.759Z,101175.59
2022-11-06T01:44:28.189Z,101179.19
2022-11-06T01:45:35.277Z,101172.19
2022-11-06T01:46:38.039Z,101171.44
2022-11-06T01:47:39.996Z,101182.97
2022-11-06T01:48:45.292Z,101175.97
2022-11-06T01:49:47.300Z,101172.59
2022-11-06T01:50:52.974Z,101176.19
2022-11-06T01:51:58.314Z,101165.59
2022-11-06T01:53:02.338Z,101170.03
2022-11-06T01:54:06.419Z,101169.22
2022-11-06T01:55:15.404Z,101161.38
2022-11-06T01:56:18.197Z,101165.81
2022-11-06T01:57:21.645Z,101164.16
2022-11-06T01:58:27.594Z,101156.28
2022-11-06T01:59:31.951Z,101162.44
2022-11-06T02:00:34.850Z,101151.00
2022-11-06T02:01:36.694Z,101158.09
2022-11-06T02:02:40.553Z,101158.09
2022-11-06T02:03:48.651Z,101163.38
2022-11-06T02:04:51.137Z,101160.84
2022-11-06T02:05:53.378Z,101160.94
2022-11-06T02:06:57.380Z,101155.66
2022-11-06T02:08:01.520Z,101157.44
2022-11-06T02:09:03.742Z,101159.25
2022-11-06T02:10:07.249Z,101154.91
2022-11-06T02:11:10.122Z,101141.69
2022-11-06T02:12:20.816Z,101155.84
2022-11-06T02:13:33.472Z,101152.34
2022-11-06T02:14:42.501Z,101159.44
2022-11-06T02:15:50.945Z,101155.00
2022-11-06T02:16:57.040Z,101156.94
2022-11-06T02:18:15.157Z,101157.78
2022-11-06T02:19:45.414Z,101155.84
2022-11-06T02:21:16.381Z,101159.16
2022-11-06T02:22:33.306Z,101155.44
2022-11-06T02:23:50.454Z,101153.56
2022-11-06T02:25:14.947Z,101147.19
2022-11-06T02:26:34.112Z,101146.84
2022-11-06T02:27:38.286Z,101150.28
2022-11-06T02:28:46.743Z,101151.00
2022-11-06T02:29:57.364Z,101150.78
2022-11-06T02:31:04.649Z,101153.22
2022-11-06T02:32:12.322Z,101159.31
2022-11-06T02:33:17.800Z,101154.75
2022-11-06T02:34:25.226Z,101154.75
2022-11-06T02:35:30.547Z,101151.16
2022-11-06T02:36:38.919Z,101150.16
2022-11-06T02:37:43.281Z,101143.06
2022-11-06T02:38:50.745Z,101144.88
2022-11-06T02:39:54.899Z,101135.97
2022-11-06T02:41:00.720Z,101135.97
2022-11-06T02:42:05.128Z,101136.94
2022-11-06T02:43:10.506Z,101137.06
2022-11-06T02:44:16.975Z,101135.34
2022-11-06T02:45:20.982Z,101140.66
2022-11-06T02:46:26.598Z,101145.09
2022-11-06T02:47:32.966Z,101134.59
2022-11-06T02:48:42.227Z,101138.13
2022-11-06T02:49:48.635Z,101131.94
2022-11-06T02:50:51.986Z,101126.66
2022-11-06T02:51:58.834Z,101130.22
2022-11-06T02:53:04.341Z,101123.22
2022-11-06T02:54:10.311Z,101121.56
2022-11-06T02:55:16.786Z,101118.91
2022-11-06T02:56:22.449Z,101114.56
2022-11-06T02:57:27.473Z,101116.47
2022-11-06T02:58:39.200Z,101121.88
2022-11-06T02:59:47.598Z,101112.22
2022-11-06T03:00:56.356Z,101112.22
2022-11-06T03:02:01.865Z,101119.44
2022-11-06T03:03:08.429Z,101112.44
2022-11-06T03:04:16.411Z,101123.16
2022-11-06T03:05:26.233Z,101119.66
2022-11-06T03:06:34.655Z,101124.09
2022-11-06T03:07:39.557Z,101119.88
2022-11-06T03:08:46.939Z,101117.31
2022-11-06T03:09:49.848Z,101115.72
2022-11-06T03:11:00.229Z,101111.38
2022-11-06T03:12:15.011Z,101109.69
2022-11-06T03:13:20.188Z,101106.28
2022-11-06T03:14:31.027Z,101101.22
2022-11-06T03:15:40.075Z,101107.38
2022-11-06T03:16:51.335Z,101099.53
2022-11-06T03:18:00.461Z,101102.28
2022-11-06T03:19:07.281Z,101106.00
2022-11-06T03:20:20.572Z,101105.13
2022-11-06T03:21:28.121Z,101099.94
2022-11-06T03:22:35.811Z,101100.91
2022-11-06T03:23:44.664Z,101096.56
2022-11-06T03:24:50.831Z,101096.56
2022-11-06T03:26:00.549Z,101092.22
2022-11-06T03:27:09.859Z,101107.28
2022-11-06T03:28:16.363Z,101114.34
2022-11-06T03:29:23.171Z,101110.84
2022-11-06T03:30:26.345Z,101109.91
2022-11-06T03:31:35.282Z,101115.09
2022-11-06T03:32:44.895Z,101116.88
2022-11-06T03:33:52.512Z,101114.22
2022-11-06T03:35:02.016Z,101113.38
2022-11-06T03:36:11.060Z,101116.03
2022-11-06T03:37:18.861Z,101116.88
2022-11-06T03:38:26.159Z,101125.59
2022-11-06T03:39:33.002Z,101121.97
2022-11-06T03:40:41.038Z,101121.88
2022-11-06T03:41:48.069Z,101116.59
2022-11-06T03:42:53.949Z,101123.47
2022-11-06T03:43:59.698Z,101116.38
2022-11-06T03:45:07.784Z,101122.50
2022-11-06T03:46:19.255Z,101126.94
2022-11-06T03:47:24.070Z,101119.88
2022-11-06T03:48:33.246Z,101119.00
2022-11-06T03:49:39.242Z,101119.00
2022-11-06T03:50:51.459Z,101117.31
2022-11-06T03:51:58.351Z,101119.22
2022-11-06T03:53:06.552Z,101119.22
2022-11-06T03:54:13.535Z,101125.59
2022-11-06T03:55:19.759Z,101122.09
2022-11-06T03:56:27.344Z,101117.72
2022-11-06T03:57:36.861Z,101117.72
2022-11-06T03:58:40.401Z,101113.38
2022-11-06T03:59:47.470Z,101111.72
2022-11-06T04:00:52.164Z,101111.72
2022-11-06T04:01:58.519Z,101111.72
2022-11-06T04:03:06.142Z,101114.44
2022-11-06T04:04:14.895Z,101105.66
2022-11-06T04:05:20.808Z,101100.38
2022-11-06T04:06:27.009Z,101101.34
2022-11-06T04:07:34.326Z,101100.47
2022-11-06T04:08:55.828Z,101106.72
2022-11-06T04:10:20.137Z,101104.06
2022-11-06T04:11:44.814Z,101099.72
2022-11-06T04:13:06.631Z,101102.50
2022-11-06T04:14:11.538Z,101093.78
2022-11-06T04:15:16.684Z,101096.44
2022-11-06T04:16:19.300Z,101106.28
2022-11-06T04:17:27.246Z,101098.34
2022-11-06T04:18:28.802Z,101101.13
2022-11-06T04:19:31.305Z,101097.63
2022-11-06T04:21:01.426Z,101099.41
2022-11-06T04:22:18.758Z,101096.75
2022-11-06T04:23:30.655Z,101097.72
2022-11-06T04:25:00.518Z,101091.69
2022-11-06T04:26:28.480Z,101096.13
2022-11-06T04:27:44.362Z,101091.78
2022-11-06T04:28:52.989Z,101091.91
2022-11-06T04:30:03.991Z,101096.34
2022-11-06T04:31:12.971Z,101082.34
2022-11-06T04:32:21.053Z,101082.34
2022-11-06T04:33:32.839Z,101084.25
2022-11-06T04:34:43.849Z,101089.56
2022-11-06T04:35:58.244Z,101079.91
2022-11-06T04:37:07.407Z,101075.59
2022-11-06T04:38:15.913Z,101080.88
2022-11-06T04:39:26.633Z,101078.25
2022-11-06T04:40:34.830Z,101080.88
2022-11-06T04:41:44.315Z,101067.75
2022-11-06T04:42:51.326Z,101075.59
2022-11-06T04:43:58.647Z,101069.44
2022-11-06T04:45:05.020Z,101070.31
2022-11-06T04:46:11.019Z,101071.97
2022-11-06T04:47:16.869Z,101070.31
2022-11-06T04:48:20.523Z,101070.31
2022-11-06T04:49:26.383Z,101064.16
2022-11-06T04:50:31.282Z,101066.06
2022-11-06T04:51:36.198Z,101058.00
2022-11-06T04:52:41.465Z,101059.72
2022-11-06T04:53:43.445Z,101052.72
2022-11-06T04:54:47.318Z,101048.38
2022-11-06T04:55:51.947Z,101044.78
2022-11-06T04:56:59.209Z,101047.44
2022-11-06T04:58:00.802Z,101044.06
2022-11-06T04:59:03.535Z,101038.78
2022-11-06T05:00:06.412Z,101039.63
2022-11-06T05:01:09.984Z,101033.47
2022-11-06T05:02:11.666Z,101026.47
2022-11-06T05:03:14.427Z,101032.72
2022-11-06T05:04:15.939Z,101016.84
2022-11-06T05:05:19.801Z,101015.06
2022-11-06T05:06:27.044Z,101014.19
2022-11-06T05:07:32.392Z,101014.19
2022-11-06T05:08:33.920Z,101004.59
2022-11-06T05:09:36.392Z,101008.91
2022-11-06T05:10:37.910Z,101014.31
2022-11-06T05:11:40.472Z,101011.69
2022-11-06T05:12:41.967Z,101023.94
2022-11-06T05:13:44.426Z,101011.69
2022-11-06T05:14:45.922Z,101012.63
2022-11-06T05:15:48.502Z,101009.13
2022-11-06T05:16:50.260Z,101005.53
2022-11-06T05:17:52.694Z,100993.25
2022-11-06T05:18:54.191Z,101000.25
2022-11-06T05:19:56.634Z,100999.41
2022-11-06T05:21:18.557Z,100994.09
2022-11-06T05:22:38.835Z,101000.25
2022-11-06T05:23:41.934Z,100998.53
2022-11-06T05:24:43.427Z,100995.91
2022-11-06T05:25:45.914Z,100994.94
2022-11-06T05:26:47.407Z,100994.22
2022-11-06T05:27:49.868Z,100987.09
2022-11-06T05:28:51.397Z,100990.59
2022-11-06T05:29:53.922Z,100986.28
2022-11-06T05:30:55.416Z,100987.97
2022-11-06T05:31:57.921Z,100991.59
2022-11-06T05:32:59.514Z,100993.25
2022-11-06T05:34:02.041Z,100991.59
2022-11-06T05:35:03.709Z,100982.66
2022-11-06T05:36:08.601Z,100987.97
2022-11-06T05:37:11.062Z,100981.81
2022-11-06T05:38:13.841Z,100980.03
2022-11-06T05:39:15.618Z,100973.88
2022-11-06T05:40:18.392Z,100982.66
2022-11-06T05:41:19.910Z,100987.97
2022-11-06T05:42:22.488Z,100987.97
2022-11-06T05:43:24.524Z,100989.75
2022-11-06T05:44:27.067Z,100992.41
2022-11-06T05:45:28.695Z,100983.66
2022-11-06T05:46:49.355Z,100988.09
2022-11-06T05:47:52.501Z,100991.59
2022-11-06T05:48:54.038Z,100991.59
2022-11-06T05:49:56.514Z,100983.72
2022-11-06T05:51:00.873Z,100986.38
2022-11-06T05:52:05.110Z,100976.75
2022-11-06T05:53:06.623Z,100977.59
2022-11-06T05:54:09.092Z,100972.31
2022-11-06T05:55:14.793Z,100973.16
2022-11-06T05:56:17.724Z,100975.81
2022-11-06T05:57:20.211Z,100978.53
2022-11-06T05:58:21.732Z,100973.16
2022-11-06T05:59:24.208Z,100977.59
2022-11-06T06:00:25.771Z,100970.59
2022-11-06T06:01:28.339Z,100972.31
2022-11-06T06:02:30.020Z,100967.00
2022-11-06T06:03:32.806Z,100964.38
2022-11-06T06:04:35.296Z,100959.19
2022-11-06T06:05:36.829Z,100967.97
2022-11-06T06:06:40.339Z,100961.00
2022-11-06T06:07:43.564Z,100968.94
2022-11-06T06:08:46.084Z,100963.63
2022-11-06T06:09:47.639Z,100959.19
2022-11-06T06:10:53.111Z,100968.94
2022-11-06T06:11:55.586Z,100956.56
2022-11-06T06:12:57.120Z,100953.91
2022-11-06T06:14:00.708Z,100953.06
2022-11-06T06:15:02.399Z,100958.34
2022-11-06T06:16:05.686Z,100951.38
2022-11-06T06:17:07.431Z,100953.06
2022-11-06T06:18:10.925Z,100946.91
2022-11-06T06:19:12.740Z,100946.91
2022-11-06T06:20:15.496Z,100944.16
2022-11-06T06:21:17.592Z,100939.00
2022-11-06T06:22:20.194Z,100942.47
2022-11-06T06:23:23.053Z,100943.44
2022-11-06T06:24:25.918Z,100940.78
2022-11-06T06:25:28.513Z,100942.47
2022-11-06T06:26:31.106Z,100931.91
2022-11-06T06:27:33.696Z,100935.50
2022-11-06T06:28:35.631Z,100937.19
2022-11-06T06:29:38.119Z,100929.34
2022-11-06T06:30:39.649Z,100933.78
2022-11-06T06:31:42.135Z,100936.34
2022-11-06T06:32:43.762Z,100934.66
2022-11-06T06:33:46.420Z,100941.63
2022-11-06T06:34:47.903Z,100940.78
2022-11-06T06:35:50.390Z,100935.50
2022-11-06T06:36:53.101Z,100940.78
2022-11-06T06:37:55.667Z,100943.34
2022-11-06T06:38:58.551Z,100938.88
2022-11-06T06:40:01.075Z,100947.66
2022-11-06T06:41:04.107Z,100947.56
2022-11-06T06:42:06.771Z,100945.84
2022-11-06T06:43:08.314Z,100954.66
2022-11-06T06:44:10.810Z,100952.84
2022-11-06T06:45:12.359Z,100961.72
2022-11-06T06:46:14.886Z,100954.66
2022-11-06T06:47:17.971Z,100960.78
2022-11-06T06:48:20.563Z,100964.28
2022-11-06T06:49:22.070Z,100959.84
2022-11-06T06:50:24.532Z,100962.47
2022-11-06T06:51:27.166Z,100965.13
2022-11-06T06:52:28.768Z,100960.66
2022-11-06T06:53:31.920Z,100964.16
2022-11-06T06:54:34.786Z,100960.56
2022-11-06T06:55:37.279Z,100965.84
2022-11-06T06:56:40.064Z,100967.56
2022-11-06T06:57:41.587Z,100948.19
2022-11-06T06:58:44.362Z,100955.16
2022-11-06T06:59:46.815Z,100955.91
2022-11-06T07:00:49.798Z,100955.91
2022-11-06T07:01:51.473Z,100967.22
2022-11-06T07:02:54.077Z,100968.06
2022-11-06T07:03:59.881Z,100962.78
2022-11-06T07:05:05.821Z,100962.78
2022-11-06T07:06:07.916Z,100963.50
2022-11-06T07:07:14.253Z,100967.00
2022-11-06T07:08:16.240Z,100965.22
2022-11-06T07:09:19.075Z,100968.72
2022-11-06T07:10:21.965Z,100965.94
2022-11-06T07:11:24.458Z,100969.44
2022-11-06T07:12:28.537Z,100965.84
2022-11-06T07:13:35.468Z,100961.41
2022-11-06T07:14:39.204Z,100964.06
2022-11-06T07:15:40.811Z,100966.47
2022-11-06T07:16:43.327Z,100960.25
2022-11-06T07:17:44.975Z,100961.91
2022-11-06T07:18:47.566Z,100963.63
2022-11-06T07:19:50.108Z,100960.97
2022-11-06T07:20:51.777Z,100965.31
2022-11-06T07:21:54.741Z,100963.41
2022-11-06T07:22:56.419Z,100963.41
2022-11-06T07:23:58.917Z,100961.47
2022-11-06T07:25:00.426Z,100968.47
2022-11-06T07:26:05.533Z,100971.88
2022-11-06T07:27:07.055Z,100970.91
2022-11-06T07:28:09.923Z,100971.75
2022-11-06T07:29:11.602Z,100971.66
2022-11-06T07:30:14.367Z,100975.03
2022-11-06T07:31:15.958Z,100968.78
2022-11-06T07:32:18.523Z,100966.16
2022-11-06T07:33:20.071Z,100967.81
2022-11-06T07:34:22.702Z,100966.78
2022-11-06T07:35:24.225Z,100962.31
2022-11-06T07:36:26.769Z,100963.06
2022-11-06T07:37:28.503Z,100964.63
2022-11-06T07:38:31.015Z,100955.84
2022-11-06T07:39:32.633Z,100961.91
2022-11-06T07:40:35.613Z,100962.63
2022-11-06T07:41:38.533Z,100963.34
2022-11-06T07:42:43.632Z,100958.06
2022-11-06T07:43:50.319Z,100961.47
2022-11-06T07:44:54.201Z,100967.59
2022-11-06T07:45:59.884Z,100966.53
2022-11-06T07:47:01.775Z,100964.72
2022-11-06T07:48:05.031Z,100967.25
2022-11-06T07:49:07.502Z,100961.88
2022-11-06T07:50:09.204Z,100967.88
2022-11-06T07:51:12.324Z,100961.50
2022-11-06T07:52:13.860Z,100967.56
2022-11-06T07:53:16.592Z,100963.84
2022-11-06T07:54:18.222Z,100963.75
2022-11-06T07:55:20.829Z,100967.13
2022-11-06T07:56:22.788Z,100965.19
2022-11-06T07:57:27.452Z,100964.19
2022-11-06T07:58:30.383Z,100956.97
2022-11-06T07:59:34.900Z,100961.19
2022-11-06T08:00:36.493Z,100959.28
2022-11-06T08:01:39.127Z,100952.06
2022-11-06T08:02:41.547Z,100957.13
2022-11-06T08:03:44.719Z,100955.22
2022-11-06T08:04:46.281Z,100953.31
2022-11-06T08:05:49.143Z,100941.75
2022-11-06T08:06:51.668Z,100945.25
2022-11-06T08:07:56.494Z,100951.38
2022-11-06T08:08:59.325Z,100949.69
2022-11-06T08:10:01.172Z,100950.53
2022-11-06T08:11:04.556Z,100954.97
2022-11-06T08:12:07.785Z,100956.81
2022-11-06T08:13:12.467Z,100952.47
2022-11-06T08:14:15.220Z,100945.47
2022-11-06T08:15:16.794Z,100949.91
2022-11-06T08:16:19.307Z,100949.91
2022-11-06T08:17:20.877Z,100949.91
2022-11-06T08:18:23.414Z,100947.25
2022-11-06T08:19:25.699Z,100949.69
2022-11-06T08:20:28.173Z,100957.53
2022-11-06T08:21:29.714Z,100949.50
2022-11-06T08:22:32.219Z,100957.22
2022-11-06T08:23:34.813Z,100950.00
2022-11-06T08:24:37.323Z,100955.16
2022-11-06T08:25:39.129Z,100956.75
2022-11-06T08:26:41.662Z,100946.78
2022-11-06T08:27:44.226Z,100951.84
2022-11-06T08:28:49.264Z,100946.19
2022-11-06T08:29:52.683Z,100945.97
2022-11-06T08:30:56.073Z,100943.84
2022-11-06T08:31:57.603Z,100952.41
2022-11-06T08:33:02.543Z,100945.06
2022-11-06T08:34:05.212Z,100940.38
2022-11-06T08:35:07.592Z,100932.06
2022-11-06T08:36:10.926Z,100936.19
2022-11-06T08:37:12.547Z,100929.69
2022-11-06T08:38:17.144Z,100926.66
2022-11-06T08:39:19.951Z,100938.75
2022-11-06T08:40:24.316Z,100923.44
2022-11-06T08:41:29.205Z,100922.25
2022-11-06T08:42:31.680Z,100922.97
2022-11-06T08:43:33.319Z,100928.03
2022-11-06T08:44:37.283Z,100926.13
2022-11-06T08:45:39.921Z,100924.19
2022-11-06T08:46:50.729Z,100922.25
2022-11-06T08:47:54.304Z,100917.56
2022-11-06T08:48:55.815Z,100916.50
2022-11-06T08:49:58.300Z,100914.56
2022-11-06T08:51:00.840Z,100903.97
2022-11-06T08:52:02.574Z,100910.81
2022-11-06T08:53:06.393Z,100906.25
2022-11-06T08:54:07.956Z,100906.13
2022-11-06T08:55:10.787Z,100899.88
2022-11-06T08:56:14.107Z,100904.19
2022-11-06T08:57:16.634Z,100911.09
2022-11-06T08:58:19.455Z,100907.44
2022-11-06T08:59:22.045Z,100904.69
2022-11-06T09:00:25.986Z,100908.06
2022-11-06T09:01:27.865Z,100908.81
2022-11-06T09:02:30.550Z,100905.16
2022-11-06T09:03:32.109Z,100895.28
2022-11-06T09:04:40.091Z,100905.66
2022-11-06T09:05:45.004Z,100890.34
2022-11-06T09:06:47.539Z,100894.56
2022-11-06T09:07:49.055Z,100893.34
2022-11-06T09:08:51.569Z,100898.41
2022-11-06T09:09:53.120Z,100890.06
2022-11-06T09:10:58.633Z,100889.00
2022-11-06T09:12:01.603Z,100881.66
2022-11-06T09:13:04.407Z,100885.00
2022-11-06T09:14:05.956Z,100883.94
2022-11-06T09:15:09.834Z,100882.03
2022-11-06T09:16:15.818Z,100886.25
2022-11-06T09:17:23.160Z,100886.09
2022-11-06T09:18:24.699Z,100883.44
2022-11-06T09:19:27.189Z,100884.28
2022-11-06T09:20:29.823Z,100878.88
2022-11-06T09:21:32.606Z,100878.72
2022-11-06T09:22:34.168Z,100882.97
2022-11-06T09:23:36.648Z,100878.38
2022-11-06T09:25:01.852Z,100877.41
2022-11-06T09:26:01.747Z,100865.69
2022-11-06T09:27:03.383Z,100869.06
2022-11-06T09:28:05.992Z,100873.28
2022-11-06T09:29:07.562Z,100866.75
2022-11-06T09:30:11.868Z,100858.66
2022-11-06T09:31:15.723Z,100861.19
2022-11-06T09:32:17.280Z,100855.88
2022-11-06T09:33:20.733Z,100855.63
2022-11-06T09:34:23.479Z,100856.59
2022-11-06T09:35:26.991Z,100849.34
2022-11-06T09:36:29.632Z,100845.72
2022-11-06T09:37:32.190Z,100847.53
2022-11-06T09:38:34.765Z,100848.38
2022-11-06T09:39:36.320Z,100845.72
2022-11-06T09:40:41.740Z,100843.78
2022-11-06T09:41:54.525Z,100844.63
2022-11-06T09:43:10.382Z,100841.97
2022-11-06T09:44:30.713Z,100843.06
2022-11-06T09:45:33.832Z,100839.94
2022-11-06T09:46:43.356Z,100844.28
2022-11-06T09:47:51.868Z,100842.59
2022-11-06T09:48:58.770Z,100839.94
2022-11-06T09:50:01.885Z,100837.16
2022-11-06T09:51:17.347Z,100830.03
2022-11-06T09:52:31.037Z,100832.44
2022-11-06T09:53:38.456Z,100835.81
2022-11-06T09:54:43.430Z,100832.03
2022-11-06T09:55:48.753Z,100829.28
2022-11-06T09:56:59.273Z,100829.88
2022-11-06T09:58:05.069Z,100830.72
2022-11-06T09:59:13.641Z,100828.75
2022-11-06T10:00:17.014Z,100833.97
2022-11-06T10:01:27.129Z,100832.97
2022-11-06T10:02:38.524Z,100830.19
2022-11-06T10:03:43.736Z,100821.25
2022-11-06T10:04:52.891Z,100821.81
2022-11-06T10:05:54.524Z,100826.06
2022-11-06T10:06:57.118Z,100829.44
2022-11-06T10:08:02.535Z,100814.91
2022-11-06T10:09:06.455Z,100817.31
2022-11-06T10:10:16.082Z,100817.91
2022-11-06T10:11:44.190Z,100816.69
2022-11-06T10:13:13.685Z,100814.72
2022-11-06T10:14:32.362Z,100811.09
2022-11-06T10:15:39.949Z,100802.13
2022-11-06T10:16:52.350Z,100798.41
2022-11-06T10:18:05.207Z,100799.09
2022-11-06T10:19:15.127Z,100797.13
2022-11-06T10:20:23.700Z,100794.38
2022-11-06T10:21:36.409Z,100797.72
2022-11-06T10:22:41.846Z,100793.25
2022-11-06T10:23:48.058Z,100794.94
2022-11-06T10:24:59.892Z,100788.78
2022-11-06T10:26:07.474Z,100787.94
2022-11-06T10:27:16.920Z,100786.97
2022-11-06T10:28:34.102Z,100799.53
2022-11-06T10:30:05.420Z,100794.38
2022-11-06T10:31:13.743Z,100789.06
2022-11-06T10:32:35.423Z,100787.34
2022-11-06T10:33:53.819Z,100787.25
2022-11-06T10:35:00.359Z,100792.56
2022-11-06T10:36:08.775Z,100782.63
2022-11-06T10:37:17.553Z,100778.00
2022-11-06T10:38:23.448Z,100782.25
2022-11-06T10:39:30.480Z,100773.00
2022-11-06T10:40:33.092Z,100769.97
2022-11-06T10:41:39.033Z,100772.34
2022-11-06T10:42:41.558Z,100773.78
2022-11-06T10:43:49.328Z,100769.16
2022-11-06T10:44:58.991Z,100767.91
2022-11-06T10:46:08.277Z,100764.03
2022-11-06T10:47:18.150Z,100763.75
2022-11-06T10:48:27.503Z,100768.13
2022-11-06T10:49:40.586Z,100758.28
2022-11-06T10:50:51.017Z,100754.53
2022-11-06T10:52:12.260Z,100763.22
2022-11-06T10:53:25.626Z,100754.28
2022-11-06T10:54:38.515Z,100748.69
2022-11-06T10:56:08.160Z,100746.72
2022-11-06T10:57:25.601Z,100737.75
2022-11-06T10:58:30.384Z,100746.47
2022-11-06T10:59:32.326Z,100736.69
2022-11-06T11:00:35.742Z,100738.38
2022-11-06T11:01:39.443Z,100739.22
2022-11-06T11:02:45.953Z,100739.22
2022-11-06T11:03:49.479Z,100740.03
2022-11-06T11:04:57.743Z,100743.53
2022-11-06T11:06:01.726Z,100741.88
2022-11-06T11:07:20.361Z,100733.75
2022-11-06T11:08:40.193Z,100729.38
2022-11-06T11:09:43.000Z,100724.06
2022-11-06T11:10:56.094Z,100717.94
2022-11-06T11:12:21.758Z,100717.09
2022-11-06T11:13:23.419Z,100730.38
2022-11-06T11:14:27.713Z,100717.66
2022-11-06T11:15:33.413Z,100723.66
2022-11-06T11:16:39.732Z,100717.38
2022-11-06T11:17:43.422Z,100715.56
2022-11-06T11:18:45.460Z,100712.91
2022-11-06T11:19:48.041Z,100720.72
2022-11-06T11:21:04.927Z,100715.41
2022-11-06T11:22:19.610Z,100706.72
2022-11-06T11:23:24.731Z,100705.88
2022-11-06T11:24:28.115Z,100697.06
2022-11-06T11:25:29.629Z,100700.69
2022-11-06T11:26:34.793Z,100701.41
2022-11-06T11:27:43.617Z,100699.72
2022-11-06T11:28:52.099Z,100703.22
2022-11-06T11:29:53.714Z,100693.56
2022-11-06T11:31:00.296Z,100692.69
2022-11-06T11:32:06.048Z,100691.03
2022-11-06T11:33:13.264Z,100686.69
2022-11-06T11:34:21.477Z,100685.72
2022-11-06T11:35:27.021Z,100692.69
2022-11-06T11:36:49.268Z,100688.50
2022-11-06T11:37:52.152Z,100686.69
2022-11-06T11:38:53.811Z,100691.16
2022-11-06T11:40:17.521Z,100685.72
2022-11-06T11:41:24.746Z,100680.41
2022-11-06T11:42:28.719Z,100682.91
2022-11-06T11:43:32.845Z,100673.81
2022-11-06T11:44:34.414Z,100669.91
2022-11-06T11:45:36.914Z,100680.25
2022-11-06T11:46:47.118Z,100660.38
2022-11-06T11:47:51.666Z,100661.91
2022-11-06T11:48:56.614Z,100651.00
2022-11-06T11:49:58.235Z,100662.34
2022-11-06T11:51:13.073Z,100652.56
2022-11-06T11:52:21.073Z,100649.06
2022-11-06T11:53:23.571Z,100647.22
2022-11-06T11:54:28.992Z,100636.59
2022-11-06T11:55:31.058Z,100628.59
2022-11-06T11:57:02.799Z,100622.16
2022-11-06T11:58:00.161Z,100612.34
2022-11-06T11:59:03.628Z,100617.50
2022-11-06T12:00:17.273Z,100612.91
2022-11-06T12:01:31.536Z,100616.25
2022-11-06T12:02:42.484Z,100612.63
2022-11-06T12:03:49.851Z,100615.13
2022-11-06T12:04:55.483Z,100605.31
2022-11-06T12:06:08.805Z,100609.81
2022-11-06T12:07:24.398Z,100603.63
2022-11-06T12:08:26.628Z,100595.81
2022-11-06T12:09:31.076Z,100588.78
2022-11-06T12:10:35.833Z,100590.47
2022-11-06T12:11:38.379Z,100583.47
2022-11-06T12:12:41.090Z,100573.66
2022-11-06T12:13:42.611Z,100582.63
2022-11-06T12:14:45.200Z,100580.13
2022-11-06T12:15:53.746Z,100583.06
2022-11-06T12:17:03.736Z,100572.53
2022-11-06T12:18:08.329Z,100575.47
2022-11-06T12:19:10.086Z,100571.13
2022-11-06T12:20:17.913Z,100566.94
2022-11-06T12:21:27.015Z,100576.63
2022-11-06T12:22:37.199Z,100568.63
2022-11-06T12:23:45.301Z,100571.28
2022-11-06T12:24:53.981Z,100564.00
2022-11-06T12:26:05.417Z,100568.34
2022-11-06T12:27:13.726Z,100562.06
2022-11-06T12:28:19.794Z,100559.38
2022-11-06T12:29:26.248Z,100560.34
2022-11-06T12:30:33.155Z,100561.19